x

N01 - Northeast Channel (44024) Wave Buoy

8:04pm - Sun 23rd Nov 2014 All times are AST. -4 hours from GMT.

  • Sig Wave height 7.9ft
  • Peak Period 8s
  • Wind
    11mph, 16mph gusts
  • Sea Temp 53°f
  • Air Temp 51°f
  • Sea Pressure 1021.6mb
  • N01 - Northeast Channel
  • N01 - Northeast Channel

More Historic Weather Station data

Upgrade to MSW Pro to gain access to the past 30 days of data for over 8000 Wavebouys and Weather Stations around the globe.

Join Pro

Comparision Forecast

View Surf forecast
   
Sun 11/23 8:04pm 8ft 8s 11 16 mph 1021.6mb 53f 51f
7:04pm 7.5ft 8s 9 11 mph 1020.9mb 53f 51f
6:04pm 9ft 8s 13 16 mph 1020.6mb 53f 51f
5:04pm 11ft 8s 18 22 mph 1020.2mb 53f 52f
4:04pm 11ft 8s 20 25 mph 1019.7mb 53f 52f
3:04pm 11.5ft 8s 22 27 mph 1019.1mb 53f 52f
1:04pm 11.5ft 8s 22 27 mph 1019.3mb 53f 52f
11:04am 14.5ft 8s  -  mph - 53f -
10:04am 15ft 11s  -  mph - 52f -
8:04am 15.5ft 11s 29 34 mph 1017.6mb 52f 51f
7:04am 15ft 11s 29 34 mph 1017.1mb 52f 51f
6:04am 16.5ft 11s 31 38 mph 1016.7mb 52f 51f
5:04am 15ft 8s 31 40 mph 1016.4mb 52f 51f
4:04am 16.5ft 11s  -  mph - 52f -
3:04am 17.5ft 11s  -  mph - 52f -
12:04am 17.5ft 8s 34 40 mph 1017.3mb 52f 50f
Sat 11/22 11:04pm 17.5ft 8s 34 40 mph 1017.9mb 52f 49f
10:04pm 14.5ft 8s 34 40 mph 1018.6mb 52f 49f
9:04pm 13ft 8s  -  mph - 52f -
8:04pm 11ft 8s  -  mph - 52f -
7:04pm 10ft 8s  -  mph - 52f -
5:04pm 9ft 8s 27 38 mph 1021.7mb 51f 42f
4:04pm 7.5ft 6s 27 34 mph 1022.7mb 52f 41f
3:04pm 9ft 6s 27 34 mph 1022.9mb 52f 41f
2:04pm 9.5ft 8s 27 31 mph 1024mb 52f 40f
1:04pm  -   -  25 36 mph 1024.9mb - 40f
12:04pm  -   -  22 27 mph 1025.7mb - 39f
11:04am 8.5ft 8s 20 25 mph 1026.4mb 52f 38f
10:04am 9ft 8s 20 27 mph 1026.5mb 52f 37f
9:04am 8ft 8s 22 29 mph 1026.1mb 52f 37f
8:04am 10ft 11s 22 31 mph 1025.7mb 52f 36f
7:04am 11.5ft 11s 25 29 mph 1025.2mb 52f 36f
6:04am 11.5ft 8s 25 31 mph 1024.6mb 52f 36f
5:04am  -   -  27 34 mph 1024.5mb - 37f
4:04am 15ft 11s 29 36 mph 1023.8mb 52f 37f
3:04am 15ft 8s 27 34 mph 1023.5mb 52f 37f
2:04am 15.5ft 8s 29 36 mph 1022.5mb 52f 38f
1:04am 17.5ft 11s 27 34 mph 1021.9mb 52f 38f
12:04am  -   -  29 34 mph 1021.6mb 52f 37f
Fri 11/21 8:04pm 11ft 8s 29 40 mph 1018.2mb 52f 38f
7:04pm 13.5ft 8s 29 38 mph 1017.1mb 51f 38f
6:04pm 12.5ft 8s 27 36 mph 1015.9mb 51f 37f
5:04pm  -   -  31 40 mph 1014.8mb - 38f
4:04pm 14ft 8s 31 40 mph 1013.6mb 52f 38f
3:04pm 12ft 8s 29 36 mph 1012.6mb 52f 37f
2:04pm 14ft 8s 29 34 mph 1011.8mb 53f 38f
1:04pm 13ft 8s 31 43 mph 1011.6mb 52f 37f
12:04pm 13ft 8s 31 43 mph 1011.6mb 52f 37f
11:04am 10ft 8s 31 38 mph 1011.8mb 52f 36f
10:04am 9.5ft 6s 31 38 mph 1010.8mb 52f 40f
9:04am 8.5ft 8s 29 36 mph 1010.4mb 52f 40f
8:04am 8ft 8s 18 25 mph 1009.7mb 52f 40f
7:04am 9ft 8s 22 27 mph 1009.6mb 52f 41f
6:04am 8.5ft 8s 18 22 mph 1008.7mb 51f 42f
5:04am 10ft 8s 16 25 mph 1008.6mb 53f 42f
4:04am  -   -  18 22 mph 1008.5mb - 44f
2:04am 11ft 8s  -  mph - 53f -
12:04am 10ft 8s 27 31 mph 1007.8mb 53f 49f
Thu 11/20 11:04pm 9ft 6s 25 31 mph 1008.1mb 53f 50f
10:04pm 8ft 8s 22 27 mph 1008.5mb 53f 50f
9:04pm 8ft 8s 22 27 mph 1008.9mb 53f 49f
8:04pm  -   -  25 29 mph 1008.7mb - 50f
7:04pm 7.5ft 8s 22 27 mph 1008mb 53f 50f
6:04pm 8ft 8s 22 29 mph 1007.8mb 53f 53f
5:04pm 8ft 8s 25 29 mph 1008.5mb 53f 52f
4:04pm 8ft 5s 25 31 mph 1009.2mb 53f 52f
3:04pm 9ft 8s 25 31 mph 1009.8mb 53f 51f
2:04pm 8ft 6s 25 29 mph 1010.6mb 53f 51f
1:04pm 8.5ft 6s 18 22 mph 1012.3mb 53f 48f
10:04am 8.5ft 8s 25 29 mph 1014.5mb 53f 50f
9:04am 7.5ft 8s 20 22 mph 1015mb 53f 49f
8:04am 7.5ft 8s 16 20 mph 1015.9mb 53f 48f
7:04am 9ft 6s 16 22 mph 1016.2mb 53f 47f
6:04am 7.5ft 8s 20 25 mph 1016.7mb 53f 47f
5:04am 7ft 11s 16 18 mph 1017.6mb 53f 46f
4:04am 6.5ft 6s 18 22 mph 1018.2mb 53f 46f
3:04am 8ft 8s 16 22 mph 1018.7mb 53f 45f
2:04am 10ft 11s 18 25 mph 1019.1mb 53f 44f